Terminal Aerodrome Forecast
Issued by NWS Sioux Falls, SD

Home | Current Version | Previous Version | Text Only | Print | Product List | Glossary On
Versions: 1 2 3 4 5 6 7 8 9 10 11 12 13 14 15 16 17 18 19 20 21 22 23 24 25 26 27 28 29 30 31 32 33 34 35
333
FTUS43 KFSD 290759 AAB
TAFSUX
TAF AMD
KSUX 290759Z 2908/3006 02007KT P6SM SCT008 OVC018
      TEMPO 2910/2914 5SM BR BKN008
     FM291400 04008KT P6SM OVC015
     FM292300 06010KT P6SM OVC040=

USA.gov is the U.S. government's official web portal to all federal, state and local government web resources and services.